RYR7RR EGSS-LEAM
Flight info
| Callsign | RYR7RR |
|---|---|
| Flight time | 2h 39m |
| Altitude | 34000 |
| Route | NUGBO M183 SILVA Q41 SAM N63 LELNA/N0439F350 DCT NOVAN DCT NENEM P152 PPN N10 CJN L27 BLN N865 ESILA |
| Aircraft | B738/M-SDE3FGILRWY/SB1 |
Departure
| Time | 2026-04-20 15:41 |
|---|---|
| Airport | London Stansted Airport (EGSS) |
Arrival
| Time | 2026-04-20 18:21 |
|---|---|
| Airport | Almería Airport (LEAM) |
| Time | Latitude | Longitude | Altitude | Speed | Heading |
|---|---|---|---|---|---|
| 2026-04-20 15:38 | 51.88724 | 0.24298 | 346 ft | 21 kts | 223° |
| 2026-04-20 15:38 | 51.88617 | 0.24139 | 349 ft | 20 kts | 223° |
| 2026-04-20 15:38 | 51.88513 | 0.23983 | 338 ft | 22 kts | 223° |
| 2026-04-20 15:38 | 51.88390 | 0.23799 | 338 ft | 26 kts | 222° |
| 2026-04-20 15:39 | 51.88250 | 0.23590 | 337 ft | 27 kts | 223° |
| 2026-04-20 15:39 | 51.88118 | 0.23392 | 335 ft | 25 kts | 223° |
| 2026-04-20 15:39 | 51.87995 | 0.23206 | 334 ft | 23 kts | 223° |
| 2026-04-20 15:39 | 51.87879 | 0.23033 | 336 ft | 21 kts | 222° |
| 2026-04-20 15:40 | 51.87812 | 0.22908 | 335 ft | 12 kts | 262° |
| 2026-04-20 15:40 | 51.87863 | 0.22802 | 334 ft | 12 kts | 313° |
| 2026-04-20 15:40 | 51.87919 | 0.22703 | 334 ft | 12 kts | 313° |
| 2026-04-20 15:40 | 51.87986 | 0.22707 | 333 ft | 14 kts | 43° |
| 2026-04-20 15:41 | 51.88181 | 0.23000 | 328 ft | 73 kts | 43° |
| 2026-04-20 15:41 | 51.88725 | 0.23811 | 332 ft | 138 kts | 44° |
| 2026-04-20 15:41 | 51.89510 | 0.25005 | 760 ft | 158 kts | 43° |
| 2026-04-20 15:41 | 51.90282 | 0.26203 | 1790 ft | 154 kts | 44° |
| 2026-04-20 15:42 | 51.91081 | 0.27422 | 2437 ft | 168 kts | 43° |
| 2026-04-20 15:42 | 51.92019 | 0.28851 | 2710 ft | 199 kts | 43° |
| 2026-04-20 15:42 | 51.93079 | 0.30484 | 3098 ft | 215 kts | 43° |
| 2026-04-20 15:42 | 51.94187 | 0.32184 | 3699 ft | 224 kts | 43° |
| 2026-04-20 15:43 | 51.95377 | 0.34019 | 4109 ft | 245 kts | 43° |
| 2026-04-20 15:43 | 51.96622 | 0.35949 | 4796 ft | 247 kts | 43° |
| 2026-04-20 15:43 | 51.97870 | 0.37888 | 4981 ft | 251 kts | 43° |
| 2026-04-20 15:43 | 51.99144 | 0.39875 | 4982 ft | 256 kts | 43° |
| 2026-04-20 15:44 | 52.00422 | 0.41869 | 4999 ft | 255 kts | 43° |
| 2026-04-20 15:44 | 52.01702 | 0.43868 | 5016 ft | 254 kts | 43° |
| 2026-04-20 15:44 | 52.02974 | 0.45859 | 5000 ft | 252 kts | 43° |
| 2026-04-20 15:44 | 52.04229 | 0.47831 | 4988 ft | 251 kts | 43° |
| 2026-04-20 15:45 | 52.05484 | 0.49797 | 4996 ft | 250 kts | 39° |
| 2026-04-20 15:45 | 52.07011 | 0.51067 | 5020 ft | 250 kts | 11° |
| 2026-04-20 15:45 | 52.08751 | 0.50972 | 5456 ft | 256 kts | 346° |
| 2026-04-20 15:45 | 52.10317 | 0.49571 | 6314 ft | 262 kts | 319° |
| 2026-04-20 15:46 | 52.11372 | 0.47158 | 7222 ft | 267 kts | 295° |
| 2026-04-20 15:46 | 52.11711 | 0.44167 | 8012 ft | 276 kts | 269° |
| 2026-04-20 15:46 | 52.11167 | 0.41148 | 8823 ft | 284 kts | 242° |
| 2026-04-20 15:46 | 52.09935 | 0.38604 | 9638 ft | 290 kts | 228° |
| 2026-04-20 15:47 | 52.08490 | 0.36273 | 10451 ft | 294 kts | 225° |
| 2026-04-20 15:47 | 52.06979 | 0.33956 | 11042 ft | 303 kts | 225° |
| 2026-04-20 15:47 | 52.05424 | 0.31591 | 11759 ft | 308 kts | 225° |
| 2026-04-20 15:47 | 52.03856 | 0.29202 | 12578 ft | 309 kts | 225° |
| 2026-04-20 15:48 | 52.02288 | 0.26796 | 13385 ft | 312 kts | 225° |
| 2026-04-20 15:48 | 52.00729 | 0.24394 | 14157 ft | 314 kts | 226° |
| 2026-04-20 15:48 | 51.99139 | 0.21936 | 14843 ft | 318 kts | 226° |
| 2026-04-20 15:48 | 51.97516 | 0.19419 | 15573 ft | 320 kts | 226° |
| 2026-04-20 15:49 | 51.95904 | 0.16918 | 16282 ft | 322 kts | 226° |
| 2026-04-20 15:49 | 51.94276 | 0.14392 | 16992 ft | 325 kts | 226° |
| 2026-04-20 15:49 | 51.92662 | 0.11887 | 17731 ft | 326 kts | 226° |
| 2026-04-20 15:49 | 51.91023 | 0.09345 | 18476 ft | 328 kts | 227° |
| 2026-04-20 15:50 | 51.89360 | 0.06766 | 18969 ft | 335 kts | 227° |
| 2026-04-20 15:50 | 51.87641 | 0.04101 | 19527 ft | 339 kts | 227° |
| 2026-04-20 15:50 | 51.85938 | 0.01465 | 20180 ft | 340 kts | 228° |
| 2026-04-20 15:50 | 51.84249 | -0.01145 | 20841 ft | 340 kts | 229° |
| 2026-04-20 15:51 | 51.82538 | -0.03787 | 21494 ft | 341 kts | 230° |
| 2026-04-20 15:51 | 51.80821 | -0.06434 | 22235 ft | 340 kts | 230° |
| 2026-04-20 15:51 | 51.79112 | -0.09065 | 22964 ft | 339 kts | 231° |
| 2026-04-20 15:51 | 51.77399 | -0.11702 | 23491 ft | 343 kts | 232° |
| 2026-04-20 15:52 | 51.75657 | -0.14388 | 23928 ft | 349 kts | 232° |
| 2026-04-20 15:52 | 51.73893 | -0.17101 | 24406 ft | 351 kts | 232° |
| 2026-04-20 15:52 | 51.72123 | -0.19815 | 24955 ft | 351 kts | 232° |
| 2026-04-20 15:53 | 51.68580 | -0.25236 | 25944 ft | 353 kts | 233° |
| 2026-04-20 15:53 | 51.66795 | -0.27966 | 26409 ft | 354 kts | 233° |
| 2026-04-20 15:53 | 51.65006 | -0.30699 | 26876 ft | 356 kts | 233° |
| 2026-04-20 15:53 | 51.63207 | -0.33442 | 27343 ft | 357 kts | 233° |
| 2026-04-20 15:54 | 51.61401 | -0.36194 | 27758 ft | 358 kts | 233° |
| 2026-04-20 15:54 | 51.59586 | -0.38957 | 28165 ft | 360 kts | 233° |
| 2026-04-20 15:54 | 51.57766 | -0.41725 | 28560 ft | 363 kts | 233° |
| 2026-04-20 15:54 | 51.55921 | -0.44529 | 28921 ft | 366 kts | 233° |
| 2026-04-20 15:55 | 51.54068 | -0.47340 | 29373 ft | 366 kts | 233° |
| 2026-04-20 15:55 | 51.52220 | -0.50135 | 29922 ft | 364 kts | 234° |
| 2026-04-20 15:55 | 51.50364 | -0.52941 | 30193 ft | 370 kts | 234° |
| 2026-04-20 15:55 | 51.48478 | -0.55801 | 30343 ft | 377 kts | 233° |
| 2026-04-20 15:56 | 51.46564 | -0.58695 | 30621 ft | 379 kts | 233° |
| 2026-04-20 15:56 | 51.44637 | -0.61597 | 30929 ft | 381 kts | 233° |
| 2026-04-20 15:56 | 51.42703 | -0.64506 | 31215 ft | 382 kts | 232° |
| 2026-04-20 15:56 | 51.40758 | -0.67428 | 31509 ft | 384 kts | 232° |
| 2026-04-20 15:57 | 51.38806 | -0.70359 | 31756 ft | 386 kts | 232° |
| 2026-04-20 15:57 | 51.36838 | -0.73312 | 31973 ft | 390 kts | 232° |
| 2026-04-20 15:57 | 51.34847 | -0.76297 | 32134 ft | 394 kts | 232° |
| 2026-04-20 15:57 | 51.32834 | -0.79311 | 32338 ft | 398 kts | 231° |
| 2026-04-20 15:58 | 51.30811 | -0.82333 | 32633 ft | 398 kts | 231° |
| 2026-04-20 15:58 | 51.28785 | -0.85354 | 32904 ft | 400 kts | 231° |
| 2026-04-20 15:58 | 51.26745 | -0.88395 | 33053 ft | 403 kts | 231° |
| 2026-04-20 15:58 | 51.24688 | -0.91459 | 33248 ft | 406 kts | 231° |
| 2026-04-20 15:59 | 51.22614 | -0.94543 | 33400 ft | 410 kts | 231° |
| 2026-04-20 15:59 | 51.20518 | -0.97658 | 33519 ft | 414 kts | 230° |
| 2026-04-20 15:59 | 51.18401 | -1.00797 | 33711 ft | 416 kts | 230° |
| 2026-04-20 15:59 | 51.16307 | -1.03896 | 33972 ft | 417 kts | 230° |
| 2026-04-20 16:00 | 51.14154 | -1.07078 | 34247 ft | 417 kts | 230° |
| 2026-04-20 16:00 | 51.12048 | -1.10188 | 34410 ft | 419 kts | 230° |
| 2026-04-20 16:00 | 51.09906 | -1.13348 | 34568 ft | 421 kts | 230° |
| 2026-04-20 16:00 | 51.07756 | -1.16517 | 34777 ft | 422 kts | 230° |
| 2026-04-20 16:01 | 51.05602 | -1.19685 | 35001 ft | 422 kts | 230° |
| 2026-04-20 16:01 | 51.03446 | -1.22853 | 35190 ft | 423 kts | 230° |
| 2026-04-20 16:01 | 50.99100 | -1.29233 | 35230 ft | 427 kts | 230° |
| 2026-04-20 16:02 | 50.95183 | -1.34587 | 35226 ft | 431 kts | 222° |
| 2026-04-20 16:02 | 50.89875 | -1.39158 | 35236 ft | 436 kts | 213° |
| 2026-04-20 16:03 | 50.84427 | -1.43384 | 35241 ft | 435 kts | 213° |
| 2026-04-20 16:03 | 50.79008 | -1.47672 | 35234 ft | 435 kts | 214° |
| 2026-04-20 16:04 | 50.73572 | -1.52003 | 35238 ft | 440 kts | 214° |
| 2026-04-20 16:04 | 50.68085 | -1.56351 | 35242 ft | 443 kts | 213° |
| 2026-04-20 16:05 | 50.62559 | -1.60710 | 35236 ft | 445 kts | 213° |
| 2026-04-20 16:05 | 50.57014 | -1.65073 | 35231 ft | 446 kts | 213° |
| 2026-04-20 16:06 | 50.51469 | -1.69426 | 35233 ft | 445 kts | 213° |
| 2026-04-20 16:06 | 50.45942 | -1.73755 | 35228 ft | 443 kts | 213° |
| 2026-04-20 16:07 | 50.40430 | -1.78061 | 35233 ft | 442 kts | 213° |
| 2026-04-20 16:07 | 50.34938 | -1.82341 | 35230 ft | 440 kts | 213° |
| 2026-04-20 16:08 | 50.29465 | -1.86596 | 35242 ft | 438 kts | 212° |
| 2026-04-20 16:08 | 50.24011 | -1.90825 | 35230 ft | 437 kts | 212° |
| 2026-04-20 16:09 | 50.18601 | -1.95011 | 35228 ft | 436 kts | 212° |
| 2026-04-20 16:09 | 50.13115 | -1.99245 | 35235 ft | 439 kts | 212° |
| 2026-04-20 16:10 | 50.07667 | -2.03439 | 35235 ft | 440 kts | 212° |
| 2026-04-20 16:10 | 50.02134 | -2.07685 | 35223 ft | 439 kts | 212° |
| 2026-04-20 16:11 | 49.96614 | -2.11580 | 35211 ft | 442 kts | 203° |
| 2026-04-20 16:11 | 49.90737 | -2.14352 | 35208 ft | 441 kts | 201° |
| 2026-04-20 16:12 | 49.84859 | -2.16996 | 35209 ft | 439 kts | 201° |
| 2026-04-20 16:12 | 49.78997 | -2.19670 | 35209 ft | 439 kts | 201° |
| 2026-04-20 16:13 | 49.73154 | -2.22369 | 35212 ft | 438 kts | 201° |
| 2026-04-20 16:13 | 49.67309 | -2.25078 | 35211 ft | 439 kts | 202° |
| 2026-04-20 16:14 | 49.61452 | -2.27787 | 35217 ft | 440 kts | 202° |
| 2026-04-20 16:14 | 49.55581 | -2.30495 | 35214 ft | 441 kts | 202° |
| 2026-04-20 16:15 | 49.49695 | -2.33201 | 35191 ft | 442 kts | 202° |
| 2026-04-20 16:15 | 49.44796 | -2.35448 | 35186 ft | 442 kts | 202° |
| 2026-04-20 16:16 | 49.38897 | -2.38148 | 35179 ft | 442 kts | 202° |
| 2026-04-20 16:16 | 49.33024 | -2.40826 | 35172 ft | 438 kts | 202° |
| 2026-04-20 16:17 | 49.27212 | -2.43471 | 35176 ft | 434 kts | 202° |
| 2026-04-20 16:17 | 49.21430 | -2.46098 | 35176 ft | 432 kts | 202° |
| 2026-04-20 16:18 | 49.15668 | -2.48711 | 35184 ft | 432 kts | 202° |
| 2026-04-20 16:18 | 49.09904 | -2.51319 | 35179 ft | 432 kts | 202° |
| 2026-04-20 16:19 | 49.04127 | -2.53926 | 35182 ft | 434 kts | 202° |
| 2026-04-20 16:19 | 48.98326 | -2.56537 | 35171 ft | 435 kts | 202° |
| 2026-04-20 16:20 | 48.92506 | -2.59149 | 35169 ft | 437 kts | 201° |
| 2026-04-20 16:20 | 48.86666 | -2.61763 | 35159 ft | 438 kts | 201° |
| 2026-04-20 16:21 | 48.80811 | -2.64378 | 35155 ft | 439 kts | 201° |
| 2026-04-20 16:21 | 48.74953 | -2.66987 | 35139 ft | 439 kts | 201° |
| 2026-04-20 16:22 | 48.69099 | -2.69589 | 35133 ft | 438 kts | 201° |
| 2026-04-20 16:22 | 48.63252 | -2.72180 | 35126 ft | 437 kts | 201° |
| 2026-04-20 16:23 | 48.57415 | -2.74762 | 35128 ft | 437 kts | 201° |
| 2026-04-20 16:23 | 48.51589 | -2.77333 | 35129 ft | 436 kts | 201° |
| 2026-04-20 16:24 | 48.45772 | -2.79893 | 35125 ft | 435 kts | 201° |
| 2026-04-20 16:24 | 48.39970 | -2.82441 | 35122 ft | 434 kts | 201° |
| 2026-04-20 16:25 | 48.34212 | -2.84964 | 35130 ft | 434 kts | 201° |
| 2026-04-20 16:25 | 48.28420 | -2.87496 | 35118 ft | 433 kts | 201° |
| 2026-04-20 16:26 | 48.22638 | -2.90017 | 35107 ft | 433 kts | 201° |
| 2026-04-20 16:26 | 48.16856 | -2.92533 | 35098 ft | 432 kts | 201° |
| 2026-04-20 16:27 | 48.11075 | -2.95041 | 35085 ft | 432 kts | 201° |
| 2026-04-20 16:27 | 48.05301 | -2.97541 | 35087 ft | 432 kts | 200° |
| 2026-04-20 16:28 | 47.99542 | -3.00029 | 35081 ft | 431 kts | 201° |
| 2026-04-20 16:28 | 47.93773 | -3.02515 | 35066 ft | 431 kts | 201° |
| 2026-04-20 16:29 | 47.88007 | -3.04995 | 35061 ft | 431 kts | 201° |
| 2026-04-20 16:29 | 47.82250 | -3.07465 | 35070 ft | 431 kts | 201° |
| 2026-04-20 16:30 | 47.76489 | -3.09930 | 35068 ft | 430 kts | 201° |
| 2026-04-20 16:30 | 47.70733 | -3.12388 | 35065 ft | 431 kts | 201° |
| 2026-04-20 16:31 | 47.64974 | -3.14842 | 35071 ft | 430 kts | 201° |
| 2026-04-20 16:31 | 47.59219 | -3.17288 | 35066 ft | 430 kts | 201° |
| 2026-04-20 16:32 | 47.53460 | -3.19730 | 35057 ft | 430 kts | 201° |
| 2026-04-20 16:32 | 47.47704 | -3.22165 | 35057 ft | 430 kts | 201° |
| 2026-04-20 16:33 | 47.41950 | -3.24594 | 35054 ft | 430 kts | 201° |
| 2026-04-20 16:33 | 47.36196 | -3.27018 | 35053 ft | 430 kts | 201° |
| 2026-04-20 16:34 | 47.30478 | -3.29420 | 35053 ft | 430 kts | 202° |
| 2026-04-20 16:34 | 47.24719 | -3.31836 | 35052 ft | 431 kts | 202° |
| 2026-04-20 16:35 | 47.18946 | -3.34251 | 35053 ft | 431 kts | 202° |
| 2026-04-20 16:35 | 47.13169 | -3.36661 | 35049 ft | 431 kts | 202° |
| 2026-04-20 16:36 | 47.07423 | -3.39052 | 35044 ft | 428 kts | 202° |
| 2026-04-20 16:36 | 47.01691 | -3.41434 | 35062 ft | 428 kts | 202° |
| 2026-04-20 16:37 | 46.95952 | -3.43815 | 35046 ft | 429 kts | 202° |
| 2026-04-20 16:37 | 46.90201 | -3.46195 | 35043 ft | 430 kts | 202° |
| 2026-04-20 16:38 | 46.84446 | -3.48570 | 35049 ft | 430 kts | 202° |
| 2026-04-20 16:38 | 46.78688 | -3.50942 | 35040 ft | 430 kts | 202° |
| 2026-04-20 16:39 | 46.72933 | -3.53306 | 35035 ft | 429 kts | 202° |
| 2026-04-20 16:39 | 46.67191 | -3.55660 | 35029 ft | 428 kts | 202° |
| 2026-04-20 16:40 | 46.61502 | -3.57987 | 35031 ft | 427 kts | 202° |
| 2026-04-20 16:40 | 46.55792 | -3.60318 | 35026 ft | 426 kts | 202° |
| 2026-04-20 16:41 | 46.50099 | -3.62638 | 35023 ft | 424 kts | 202° |
| 2026-04-20 16:41 | 46.44422 | -3.64946 | 35020 ft | 423 kts | 202° |
| 2026-04-20 16:42 | 46.38759 | -3.67244 | 35021 ft | 422 kts | 202° |
| 2026-04-20 16:42 | 46.33023 | -3.69184 | 35012 ft | 429 kts | 192° |
| 2026-04-20 16:43 | 46.26990 | -3.68781 | 35025 ft | 441 kts | 176° |
| 2026-04-20 16:43 | 46.20934 | -3.67209 | 35013 ft | 442 kts | 175° |
| 2026-04-20 16:44 | 46.14882 | -3.65600 | 35013 ft | 442 kts | 176° |
| 2026-04-20 16:44 | 46.08821 | -3.64044 | 35009 ft | 443 kts | 176° |
| 2026-04-20 16:45 | 46.02746 | -3.62521 | 35010 ft | 443 kts | 176° |
| 2026-04-20 16:45 | 45.96656 | -3.61008 | 35003 ft | 444 kts | 176° |
| 2026-04-20 16:46 | 45.90564 | -3.59497 | 35007 ft | 445 kts | 176° |
| 2026-04-20 16:46 | 45.84455 | -3.57985 | 34999 ft | 445 kts | 176° |
| 2026-04-20 16:47 | 45.78346 | -3.56475 | 34994 ft | 446 kts | 176° |
| 2026-04-20 16:47 | 45.72228 | -3.54966 | 34995 ft | 446 kts | 176° |
| 2026-04-20 16:48 | 45.66115 | -3.53462 | 34993 ft | 446 kts | 176° |
| 2026-04-20 16:48 | 45.60003 | -3.51961 | 34985 ft | 446 kts | 176° |
| 2026-04-20 16:49 | 45.53935 | -3.50475 | 34988 ft | 445 kts | 176° |
| 2026-04-20 16:49 | 45.47834 | -3.48983 | 34985 ft | 445 kts | 176° |
| 2026-04-20 16:50 | 45.41738 | -3.47497 | 34984 ft | 444 kts | 176° |
| 2026-04-20 16:50 | 45.35648 | -3.46015 | 34976 ft | 444 kts | 176° |
| 2026-04-20 16:51 | 45.29571 | -3.44539 | 34984 ft | 443 kts | 176° |
| 2026-04-20 16:51 | 45.23498 | -3.43068 | 34979 ft | 443 kts | 176° |
| 2026-04-20 16:52 | 45.17429 | -3.41601 | 34977 ft | 442 kts | 176° |
| 2026-04-20 16:52 | 45.11369 | -3.40139 | 34973 ft | 442 kts | 176° |
| 2026-04-20 16:53 | 45.05311 | -3.38681 | 34967 ft | 441 kts | 175° |
| 2026-04-20 16:53 | 44.99261 | -3.37227 | 34962 ft | 441 kts | 175° |
| 2026-04-20 16:54 | 44.93210 | -3.35777 | 34967 ft | 441 kts | 175° |
| 2026-04-20 16:54 | 44.87161 | -3.34331 | 34963 ft | 441 kts | 175° |
| 2026-04-20 16:55 | 44.81114 | -3.32887 | 34965 ft | 441 kts | 175° |
| 2026-04-20 16:55 | 44.75068 | -3.31448 | 34958 ft | 441 kts | 175° |
| 2026-04-20 16:56 | 44.69018 | -3.30010 | 34959 ft | 441 kts | 175° |
| 2026-04-20 16:56 | 44.62964 | -3.28574 | 34953 ft | 441 kts | 175° |
| 2026-04-20 16:57 | 44.56918 | -3.27143 | 34954 ft | 441 kts | 175° |
| 2026-04-20 16:57 | 44.50867 | -3.25714 | 34948 ft | 441 kts | 175° |
| 2026-04-20 16:58 | 44.44816 | -3.24288 | 34948 ft | 441 kts | 175° |
| 2026-04-20 16:58 | 44.38770 | -3.22866 | 34952 ft | 441 kts | 175° |
| 2026-04-20 16:59 | 44.32725 | -3.21447 | 34952 ft | 440 kts | 175° |
| 2026-04-20 16:59 | 44.26681 | -3.20032 | 34947 ft | 440 kts | 175° |
| 2026-04-20 17:00 | 44.17659 | -3.17924 | 34947 ft | 440 kts | 175° |
| 2026-04-20 17:01 | 44.11620 | -3.16517 | 34945 ft | 440 kts | 175° |
| 2026-04-20 17:01 | 44.05586 | -3.15114 | 34943 ft | 440 kts | 175° |
| 2026-04-20 17:02 | 43.99505 | -3.13824 | 34941 ft | 439 kts | 176° |
| 2026-04-20 17:02 | 43.94484 | -3.12849 | 34936 ft | 438 kts | 176° |
| 2026-04-20 17:03 | 43.88446 | -3.11679 | 34935 ft | 438 kts | 176° |
| 2026-04-20 17:03 | 43.81429 | -3.10301 | 34934 ft | 438 kts | 176° |
| 2026-04-20 17:04 | 43.76375 | -3.09304 | 34927 ft | 438 kts | 176° |
| 2026-04-20 17:04 | 43.70350 | -3.08114 | 34930 ft | 437 kts | 176° |
| 2026-04-20 17:05 | 43.64327 | -3.06928 | 34929 ft | 437 kts | 176° |
| 2026-04-20 17:05 | 43.58309 | -3.05746 | 34918 ft | 437 kts | 175° |
| 2026-04-20 17:06 | 43.52284 | -3.04564 | 34917 ft | 437 kts | 175° |
| 2026-04-20 17:06 | 43.46265 | -3.03386 | 34913 ft | 437 kts | 175° |
| 2026-04-20 17:07 | 43.40254 | -3.02212 | 34911 ft | 437 kts | 175° |
| 2026-04-20 17:07 | 43.34233 | -3.01039 | 34930 ft | 439 kts | 175° |
| 2026-04-20 17:08 | 43.28118 | -2.99853 | 35160 ft | 446 kts | 175° |
| 2026-04-20 17:08 | 43.25095 | -2.99266 | 35423 ft | 445 kts | 175° |
| 2026-04-20 17:08 | 43.22033 | -2.98670 | 35687 ft | 444 kts | 175° |
| 2026-04-20 17:08 | 43.18985 | -2.98078 | 35968 ft | 442 kts | 175° |
| 2026-04-20 17:09 | 43.15943 | -2.97489 | 36225 ft | 442 kts | 175° |
| 2026-04-20 17:09 | 43.12894 | -2.96898 | 36436 ft | 442 kts | 175° |
| 2026-04-20 17:09 | 43.09844 | -2.96309 | 36670 ft | 442 kts | 175° |
| 2026-04-20 17:09 | 43.06802 | -2.95722 | 36927 ft | 441 kts | 176° |
| 2026-04-20 17:10 | 43.03763 | -2.95136 | 37156 ft | 441 kts | 176° |
| 2026-04-20 17:10 | 43.00723 | -2.94550 | 37354 ft | 441 kts | 176° |
| 2026-04-20 17:10 | 42.97686 | -2.93965 | 37567 ft | 441 kts | 176° |
| 2026-04-20 17:10 | 42.94654 | -2.93383 | 37789 ft | 440 kts | 176° |
| 2026-04-20 17:11 | 42.91623 | -2.92800 | 37921 ft | 441 kts | 176° |
| 2026-04-20 17:11 | 42.85521 | -2.91632 | 37911 ft | 443 kts | 176° |
| 2026-04-20 17:12 | 42.79436 | -2.90466 | 37908 ft | 440 kts | 176° |
| 2026-04-20 17:12 | 42.73404 | -2.89312 | 37898 ft | 436 kts | 176° |
| 2026-04-20 17:13 | 42.67402 | -2.88167 | 37898 ft | 434 kts | 176° |
| 2026-04-20 17:13 | 42.61435 | -2.87032 | 37893 ft | 433 kts | 176° |
| 2026-04-20 17:14 | 42.55456 | -2.85899 | 37912 ft | 437 kts | 176° |
| 2026-04-20 17:14 | 42.49387 | -2.84751 | 37911 ft | 443 kts | 176° |
| 2026-04-20 17:15 | 42.43263 | -2.83593 | 37905 ft | 446 kts | 176° |
| 2026-04-20 17:15 | 42.37106 | -2.82429 | 37900 ft | 448 kts | 176° |
| 2026-04-20 17:16 | 42.30928 | -2.81264 | 37908 ft | 448 kts | 176° |
| 2026-04-20 17:16 | 42.24768 | -2.80104 | 37904 ft | 447 kts | 176° |
| 2026-04-20 17:17 | 42.18619 | -2.78949 | 37913 ft | 445 kts | 176° |
| 2026-04-20 17:17 | 42.12502 | -2.77802 | 37921 ft | 443 kts | 176° |
| 2026-04-20 17:18 | 42.06414 | -2.76664 | 37923 ft | 440 kts | 176° |
| 2026-04-20 17:18 | 42.00359 | -2.75534 | 37925 ft | 439 kts | 176° |
| 2026-04-20 17:19 | 41.94359 | -2.74418 | 37917 ft | 437 kts | 176° |
| 2026-04-20 17:19 | 41.88339 | -2.73299 | 37914 ft | 437 kts | 176° |
| 2026-04-20 17:20 | 41.82329 | -2.72184 | 37918 ft | 435 kts | 176° |
| 2026-04-20 17:20 | 41.76325 | -2.71072 | 37919 ft | 435 kts | 176° |
| 2026-04-20 17:21 | 41.70319 | -2.69963 | 37924 ft | 436 kts | 176° |
| 2026-04-20 17:21 | 41.64294 | -2.68851 | 37923 ft | 438 kts | 176° |
| 2026-04-20 17:22 | 41.58250 | -2.67739 | 37919 ft | 439 kts | 176° |
| 2026-04-20 17:22 | 41.52176 | -2.66622 | 37916 ft | 441 kts | 176° |
| 2026-04-20 17:23 | 41.46089 | -2.65505 | 37920 ft | 442 kts | 176° |
| 2026-04-20 17:23 | 41.39986 | -2.64387 | 37917 ft | 443 kts | 176° |
| 2026-04-20 17:24 | 41.33874 | -2.63270 | 37923 ft | 444 kts | 176° |
| 2026-04-20 17:24 | 41.27747 | -2.62453 | 37925 ft | 441 kts | 180° |
| 2026-04-20 17:25 | 41.21621 | -2.61970 | 37924 ft | 441 kts | 181° |
| 2026-04-20 17:25 | 41.15495 | -2.61470 | 37927 ft | 441 kts | 180° |
| 2026-04-20 17:26 | 41.09379 | -2.60926 | 37918 ft | 440 kts | 180° |
| 2026-04-20 17:26 | 41.03312 | -2.60377 | 37922 ft | 439 kts | 180° |
| 2026-04-20 17:27 | 40.97221 | -2.59830 | 37929 ft | 438 kts | 180° |
| 2026-04-20 17:27 | 40.91140 | -2.59286 | 37926 ft | 438 kts | 180° |
| 2026-04-20 17:28 | 40.85068 | -2.58744 | 37976 ft | 437 kts | 180° |
| 2026-04-20 17:28 | 40.78997 | -2.58202 | 37934 ft | 437 kts | 180° |
| 2026-04-20 17:29 | 40.72950 | -2.57663 | 37922 ft | 435 kts | 180° |
| 2026-04-20 17:29 | 40.66922 | -2.57127 | 37919 ft | 433 kts | 180° |
| 2026-04-20 17:30 | 40.60921 | -2.56595 | 37926 ft | 432 kts | 180° |
| 2026-04-20 17:30 | 40.54935 | -2.56065 | 37924 ft | 430 kts | 180° |
| 2026-04-20 17:31 | 40.48963 | -2.55537 | 37928 ft | 430 kts | 180° |
| 2026-04-20 17:31 | 40.43000 | -2.55011 | 37928 ft | 429 kts | 180° |
| 2026-04-20 17:32 | 40.37076 | -2.55059 | 37936 ft | 423 kts | 192° |
| 2026-04-20 17:32 | 40.31485 | -2.57230 | 37944 ft | 418 kts | 204° |
| 2026-04-20 17:33 | 40.26060 | -2.60022 | 37938 ft | 420 kts | 204° |
| 2026-04-20 17:33 | 40.20602 | -2.62815 | 37935 ft | 422 kts | 204° |
| 2026-04-20 17:34 | 40.15105 | -2.65584 | 37937 ft | 424 kts | 204° |
| 2026-04-20 17:34 | 40.09602 | -2.68335 | 37924 ft | 424 kts | 204° |
| 2026-04-20 17:35 | 40.04093 | -2.71081 | 37937 ft | 423 kts | 204° |
| 2026-04-20 17:35 | 39.98625 | -2.73803 | 37937 ft | 423 kts | 204° |
| 2026-04-20 17:36 | 39.93120 | -2.76540 | 37929 ft | 423 kts | 204° |
| 2026-04-20 17:36 | 39.87619 | -2.79269 | 37930 ft | 423 kts | 204° |
| 2026-04-20 17:37 | 39.82114 | -2.81997 | 37934 ft | 423 kts | 204° |
| 2026-04-20 17:37 | 39.76614 | -2.84717 | 37933 ft | 423 kts | 204° |
| 2026-04-20 17:38 | 39.71112 | -2.87434 | 37927 ft | 423 kts | 204° |
| 2026-04-20 17:38 | 39.65605 | -2.90149 | 37926 ft | 423 kts | 203° |
| 2026-04-20 17:39 | 39.60099 | -2.92858 | 37924 ft | 423 kts | 203° |
| 2026-04-20 17:39 | 39.54594 | -2.95568 | 37920 ft | 423 kts | 203° |
| 2026-04-20 17:40 | 39.49095 | -2.98278 | 37916 ft | 423 kts | 203° |
| 2026-04-20 17:40 | 39.43593 | -3.00985 | 37916 ft | 423 kts | 203° |
| 2026-04-20 17:41 | 39.38090 | -3.03683 | 37914 ft | 423 kts | 203° |
| 2026-04-20 17:41 | 39.32582 | -3.06358 | 37909 ft | 423 kts | 203° |
| 2026-04-20 17:42 | 39.27071 | -3.09028 | 37908 ft | 423 kts | 203° |
| 2026-04-20 17:42 | 39.21558 | -3.11697 | 37908 ft | 423 kts | 203° |
| 2026-04-20 17:43 | 39.16041 | -3.14365 | 37911 ft | 424 kts | 203° |
| 2026-04-20 17:43 | 39.10522 | -3.17030 | 37908 ft | 424 kts | 203° |
| 2026-04-20 17:44 | 39.05000 | -3.19692 | 37904 ft | 424 kts | 203° |
| 2026-04-20 17:44 | 38.99468 | -3.22354 | 37904 ft | 424 kts | 202° |
| 2026-04-20 17:45 | 38.93936 | -3.25020 | 37903 ft | 425 kts | 203° |
| 2026-04-20 17:45 | 38.88406 | -3.27684 | 37901 ft | 425 kts | 202° |
| 2026-04-20 17:46 | 38.82865 | -3.30350 | 37902 ft | 425 kts | 203° |
| 2026-04-20 17:46 | 38.77329 | -3.33009 | 37902 ft | 425 kts | 202° |
| 2026-04-20 17:47 | 38.71791 | -3.35663 | 37906 ft | 425 kts | 202° |
| 2026-04-20 17:47 | 38.66253 | -3.38314 | 37908 ft | 425 kts | 202° |
| 2026-04-20 17:48 | 38.60757 | -3.40940 | 37900 ft | 425 kts | 202° |
| 2026-04-20 17:48 | 38.55227 | -3.43578 | 37898 ft | 424 kts | 202° |
| 2026-04-20 17:49 | 38.49691 | -3.46214 | 37899 ft | 424 kts | 202° |
| 2026-04-20 17:49 | 38.44162 | -3.48843 | 37905 ft | 424 kts | 202° |
| 2026-04-20 17:50 | 38.38631 | -3.51469 | 37902 ft | 423 kts | 202° |
| 2026-04-20 17:50 | 38.33113 | -3.54084 | 37899 ft | 423 kts | 202° |
| 2026-04-20 17:51 | 38.27597 | -3.56695 | 37893 ft | 423 kts | 202° |
| 2026-04-20 17:51 | 38.23009 | -3.58863 | 37893 ft | 423 kts | 202° |
| 2026-04-20 17:52 | 38.17563 | -3.61420 | 37866 ft | 406 kts | 200° |
| 2026-04-20 17:52 | 38.12103 | -3.62623 | 37883 ft | 399 kts | 183° |
| 2026-04-20 17:53 | 38.06514 | -3.62636 | 37803 ft | 402 kts | 182° |
| 2026-04-20 17:53 | 38.03720 | -3.62630 | 37107 ft | 402 kts | 182° |
| 2026-04-20 17:53 | 38.00911 | -3.62632 | 36129 ft | 406 kts | 182° |
| 2026-04-20 17:53 | 37.98068 | -3.62644 | 35264 ft | 409 kts | 182° |
| 2026-04-20 17:54 | 37.95231 | -3.62662 | 34610 ft | 406 kts | 182° |
| 2026-04-20 17:54 | 37.92425 | -3.62681 | 34082 ft | 401 kts | 182° |
| 2026-04-20 17:54 | 37.89652 | -3.62701 | 33511 ft | 395 kts | 182° |
| 2026-04-20 17:54 | 37.86917 | -3.62723 | 32880 ft | 391 kts | 182° |
| 2026-04-20 17:55 | 37.84214 | -3.62745 | 32364 ft | 386 kts | 182° |
| 2026-04-20 17:55 | 37.81538 | -3.62767 | 31974 ft | 384 kts | 182° |
| 2026-04-20 17:55 | 37.78871 | -3.62789 | 31584 ft | 382 kts | 182° |
| 2026-04-20 17:55 | 37.76220 | -3.62811 | 31212 ft | 380 kts | 182° |
| 2026-04-20 17:56 | 37.73591 | -3.62832 | 30853 ft | 377 kts | 182° |
| 2026-04-20 17:56 | 37.70971 | -3.62853 | 30495 ft | 375 kts | 182° |
| 2026-04-20 17:56 | 37.68366 | -3.62874 | 30144 ft | 373 kts | 182° |
| 2026-04-20 17:56 | 37.65773 | -3.62896 | 29739 ft | 371 kts | 182° |
| 2026-04-20 17:57 | 37.63206 | -3.62915 | 29353 ft | 367 kts | 182° |
| 2026-04-20 17:57 | 37.60661 | -3.62934 | 28994 ft | 364 kts | 183° |
| 2026-04-20 17:57 | 37.58147 | -3.62953 | 28661 ft | 359 kts | 182° |
| 2026-04-20 17:57 | 37.55662 | -3.62971 | 28304 ft | 356 kts | 183° |
| 2026-04-20 17:58 | 37.53196 | -3.62991 | 27944 ft | 353 kts | 183° |
| 2026-04-20 17:58 | 37.50751 | -3.63010 | 27585 ft | 351 kts | 183° |
| 2026-04-20 17:58 | 37.48318 | -3.63029 | 27230 ft | 348 kts | 183° |
| 2026-04-20 17:58 | 37.45903 | -3.63047 | 26880 ft | 346 kts | 183° |
| 2026-04-20 17:59 | 37.43505 | -3.63066 | 26542 ft | 344 kts | 182° |
| 2026-04-20 17:59 | 37.41139 | -3.62647 | 26164 ft | 347 kts | 162° |
| 2026-04-20 17:59 | 37.39039 | -3.61154 | 25860 ft | 350 kts | 142° |
| 2026-04-20 17:59 | 37.37448 | -3.58842 | 25514 ft | 353 kts | 122° |
| 2026-04-20 18:00 | 37.36293 | -3.56124 | 25219 ft | 352 kts | 118° |
| 2026-04-20 18:00 | 37.35217 | -3.53364 | 24880 ft | 351 kts | 118° |
| 2026-04-20 18:00 | 37.34170 | -3.50638 | 24548 ft | 350 kts | 118° |
| 2026-04-20 18:00 | 37.33106 | -3.47891 | 24216 ft | 350 kts | 118° |
| 2026-04-20 18:01 | 37.32031 | -3.45148 | 23855 ft | 350 kts | 118° |
| 2026-04-20 18:01 | 37.30947 | -3.42412 | 23525 ft | 350 kts | 118° |
| 2026-04-20 18:01 | 37.29857 | -3.39676 | 23115 ft | 350 kts | 118° |
| 2026-04-20 18:01 | 37.28769 | -3.36954 | 22716 ft | 349 kts | 118° |
| 2026-04-20 18:02 | 37.27675 | -3.34221 | 22294 ft | 350 kts | 118° |
| 2026-04-20 18:02 | 37.26584 | -3.31501 | 21932 ft | 348 kts | 118° |
| 2026-04-20 18:02 | 37.25500 | -3.28799 | 21596 ft | 346 kts | 118° |
| 2026-04-20 18:02 | 37.24423 | -3.26103 | 21255 ft | 344 kts | 118° |
| 2026-04-20 18:03 | 37.23361 | -3.23416 | 20920 ft | 343 kts | 118° |
| 2026-04-20 18:03 | 37.22307 | -3.20740 | 20595 ft | 341 kts | 118° |
| 2026-04-20 18:03 | 37.21259 | -3.18078 | 20251 ft | 340 kts | 118° |
| 2026-04-20 18:03 | 37.20245 | -3.15412 | 19896 ft | 339 kts | 111° |
| 2026-04-20 18:04 | 37.19711 | -3.12509 | 19406 ft | 345 kts | 99° |
| 2026-04-20 18:04 | 37.19392 | -3.09531 | 19065 ft | 344 kts | 98° |
| 2026-04-20 18:04 | 37.19099 | -3.06569 | 18784 ft | 341 kts | 98° |
| 2026-04-20 18:04 | 37.18808 | -3.03627 | 18498 ft | 338 kts | 98° |
| 2026-04-20 18:05 | 37.18214 | -2.97809 | 17826 ft | 335 kts | 98° |
| 2026-04-20 18:05 | 37.17910 | -2.94924 | 17500 ft | 333 kts | 98° |
| 2026-04-20 18:05 | 37.17605 | -2.92057 | 17154 ft | 331 kts | 99° |
| 2026-04-20 18:06 | 37.17298 | -2.89210 | 16827 ft | 329 kts | 99° |
| 2026-04-20 18:06 | 37.16991 | -2.86370 | 16506 ft | 327 kts | 99° |
| 2026-04-20 18:06 | 37.16686 | -2.83562 | 16146 ft | 322 kts | 99° |
| 2026-04-20 18:06 | 37.16383 | -2.80788 | 15608 ft | 321 kts | 99° |
| 2026-04-20 18:07 | 37.16080 | -2.78019 | 15092 ft | 320 kts | 99° |
| 2026-04-20 18:07 | 37.15778 | -2.75264 | 14605 ft | 318 kts | 99° |
| 2026-04-20 18:07 | 37.15480 | -2.72545 | 14227 ft | 312 kts | 99° |
| 2026-04-20 18:07 | 37.15186 | -2.69879 | 13910 ft | 305 kts | 99° |
| 2026-04-20 18:08 | 37.14899 | -2.67275 | 13586 ft | 298 kts | 99° |
| 2026-04-20 18:08 | 37.14617 | -2.64731 | 13255 ft | 291 kts | 99° |
| 2026-04-20 18:08 | 37.14341 | -2.62237 | 12956 ft | 288 kts | 98° |
| 2026-04-20 18:08 | 37.14069 | -2.59792 | 12681 ft | 286 kts | 98° |
| 2026-04-20 18:09 | 37.13791 | -2.57302 | 12395 ft | 293 kts | 98° |
| 2026-04-20 18:09 | 37.13503 | -2.54724 | 12111 ft | 304 kts | 98° |
| 2026-04-20 18:09 | 37.13208 | -2.52083 | 11813 ft | 307 kts | 98° |
| 2026-04-20 18:09 | 37.12913 | -2.49449 | 11469 ft | 301 kts | 98° |
| 2026-04-20 18:10 | 37.12626 | -2.46893 | 11155 ft | 293 kts | 98° |
| 2026-04-20 18:10 | 37.12345 | -2.44395 | 10846 ft | 288 kts | 98° |
| 2026-04-20 18:10 | 37.12067 | -2.41921 | 10449 ft | 285 kts | 97° |
| 2026-04-20 18:10 | 37.11792 | -2.39493 | 10175 ft | 277 kts | 97° |
| 2026-04-20 18:11 | 37.11522 | -2.37098 | 9929 ft | 277 kts | 97° |
| 2026-04-20 18:11 | 37.11252 | -2.34722 | 9753 ft | 272 kts | 97° |
| 2026-04-20 18:11 | 37.10988 | -2.32388 | 9425 ft | 273 kts | 97° |
| 2026-04-20 18:11 | 37.10718 | -2.30006 | 9039 ft | 277 kts | 97° |
| 2026-04-20 18:12 | 37.10444 | -2.27600 | 8676 ft | 280 kts | 97° |
| 2026-04-20 18:12 | 37.10168 | -2.25181 | 8368 ft | 280 kts | 98° |
| 2026-04-20 18:12 | 37.09893 | -2.22772 | 8079 ft | 278 kts | 98° |
| 2026-04-20 18:12 | 37.09622 | -2.20398 | 7687 ft | 274 kts | 98° |
| 2026-04-20 18:13 | 37.09351 | -2.18031 | 7225 ft | 274 kts | 98° |
| 2026-04-20 18:13 | 37.09080 | -2.15682 | 6809 ft | 272 kts | 98° |
| 2026-04-20 18:13 | 37.08812 | -2.13353 | 6400 ft | 269 kts | 99° |
| 2026-04-20 18:13 | 37.08222 | -2.11169 | 6008 ft | 264 kts | 125° |
| 2026-04-20 18:14 | 37.06915 | -2.09643 | 5716 ft | 254 kts | 152° |
| 2026-04-20 18:14 | 37.05276 | -2.08945 | 5436 ft | 246 kts | 173° |
| 2026-04-20 18:14 | 37.03595 | -2.08742 | 5215 ft | 242 kts | 176° |
| 2026-04-20 18:14 | 37.01888 | -2.08573 | 4989 ft | 250 kts | 176° |
| 2026-04-20 18:15 | 37.00146 | -2.08397 | 4891 ft | 254 kts | 175° |
| 2026-04-20 18:15 | 36.98390 | -2.08211 | 4759 ft | 250 kts | 175° |
| 2026-04-20 18:15 | 36.96678 | -2.08024 | 4631 ft | 243 kts | 175° |
| 2026-04-20 18:15 | 36.95018 | -2.07841 | 4521 ft | 236 kts | 175° |
| 2026-04-20 18:16 | 36.93408 | -2.07682 | 4391 ft | 229 kts | 181° |
| 2026-04-20 18:16 | 36.91927 | -2.08253 | 4181 ft | 224 kts | 218° |
| 2026-04-20 18:16 | 36.91024 | -2.09797 | 3961 ft | 224 kts | 249° |
| 2026-04-20 18:16 | 36.90532 | -2.11654 | 3744 ft | 227 kts | 253° |
| 2026-04-20 18:17 | 36.90089 | -2.13554 | 3493 ft | 229 kts | 253° |
| 2026-04-20 18:17 | 36.89648 | -2.15465 | 3249 ft | 229 kts | 254° |
| 2026-04-20 18:17 | 36.89208 | -2.17371 | 2982 ft | 229 kts | 253° |
| 2026-04-20 18:17 | 36.88748 | -2.19267 | 2707 ft | 227 kts | 253° |
| 2026-04-20 18:18 | 36.88287 | -2.21136 | 2414 ft | 223 kts | 253° |
| 2026-04-20 18:18 | 36.87836 | -2.22968 | 2119 ft | 218 kts | 253° |
| 2026-04-20 18:18 | 36.87394 | -2.24767 | 1825 ft | 214 kts | 253° |
| 2026-04-20 18:18 | 36.86965 | -2.26516 | 1535 ft | 206 kts | 253° |
| 2026-04-20 18:19 | 36.86561 | -2.28161 | 1296 ft | 191 kts | 253° |
| 2026-04-20 18:19 | 36.86190 | -2.29697 | 1012 ft | 179 kts | 253° |
| 2026-04-20 18:19 | 36.85855 | -2.31107 | 801 ft | 160 kts | 252° |
| 2026-04-20 18:19 | 36.85530 | -2.32368 | 537 ft | 147 kts | 252° |
| 2026-04-20 18:20 | 36.85232 | -2.33586 | 386 ft | 148 kts | 252° |
| 2026-04-20 18:20 | 36.84936 | -2.34809 | 209 ft | 147 kts | 252° |
| 2026-04-20 18:20 | 36.84635 | -2.36029 | 61 ft | 145 kts | 252° |
| 2026-04-20 18:20 | 36.84383 | -2.37064 | 60 ft | 103 kts | 253° |
| 2026-04-20 18:21 | 36.84224 | -2.37708 | 61 ft | 53 kts | 253° |
| 2026-04-20 18:21 | 36.84201 | -2.38026 | 61 ft | 20 kts | 279° |
| 2026-04-20 18:21 | 36.84226 | -2.38173 | 57 ft | 15 kts | 294° |
| 2026-04-20 18:21 | 36.84294 | -2.38134 | 58 ft | 15 kts | 71° |
| 2026-04-20 18:22 | 36.84323 | -2.38012 | 59 ft | 14 kts | 75° |
| 2026-04-20 18:22 | 36.84344 | -2.37924 | 57 ft | 8 kts | 70° |
| 2026-04-20 18:22 | 36.84362 | -2.37860 | 65 ft | 8 kts | 72° |
| 2026-04-20 18:22 | 36.84376 | -2.37799 | 63 ft | 7 kts | 74° |
| 2026-04-20 18:23 | 36.84388 | -2.37744 | 62 ft | 9 kts | 74° |
| 2026-04-20 18:23 | 36.84411 | -2.37655 | 57 ft | 13 kts | 73° |
| 2026-04-20 18:23 | 36.84443 | -2.37522 | 61 ft | 18 kts | 73° |
| 2026-04-20 18:23 | 36.84481 | -2.37389 | 63 ft | 13 kts | 47° |
| 2026-04-20 18:24 | 36.84560 | -2.37348 | 66 ft | 13 kts | 63° |
| 2026-04-20 18:24 | 36.84588 | -2.37242 | 62 ft | 13 kts | 73° |
| 2026-04-20 18:24 | 36.84610 | -2.37150 | 62 ft | 11 kts | 73° |
| 2026-04-20 18:24 | 36.84638 | -2.37091 | 60 ft | 7 kts | 17° |
| 2026-04-20 18:25 | 36.84685 | -2.37102 | 64 ft | 7 kts | 343° |
| 2026-04-20 18:25 | 36.84712 | -2.37086 | 64 ft | 5 kts | 109° |
| 2026-04-20 18:25 | 36.84701 | -2.37076 | 63 ft | 3 kts | 147° |
| 2026-04-20 18:25 | 36.84698 | -2.37074 | 69 ft | 0 kts | 147° |